Página principal
METAR-TAF:

METAR-TAF

Aeroportos :

Koné, Nova Caledónia

latitude: 21-03-12S, longitude: 164-50-18E, altura: 7 m

METAR: em falta

Hora: 15:58 (04:58 UTC)

Previsão

O boletim foi feito há 5 horas e 58 minutos, às 23:00 UTC
Previsão válida de 23 às 00 UTC a 23 às 24 UTC
Vento 10 kt de este
Visibilidade 10 km ou mais
Nuvens dispersasa uma altura de 3000 ft
Nuvens fragmentadasa uma altura de 4500 ft
Probabilidade 40% :
Temporariamente
de 23 às 01 UTC a 23 às 07 UTC
Visibilidade: 4000 m
Poucas nuvensa uma altura de 2500 ft, Cumulus congestus.
aguaceiros de chuva,

TAF: NWWD 222300Z 2300/2324 08010KT 9999 SCT030 BKN045 PROB40 TEMPO 2301/2307 4000 SHRA FEW025TCU

Observações e previsões do tempo de mais de 4000 aeroportos (mensagens METAR e TAF).

As estações disponíveis são os pontos amarelos e vermelhos sobre o mapa.

Mova o rato sobre o mapa para ver o nome da estação.

Depois clique no ponto para visualizar as observações e previsões meteorológicas.

Para alterar o mapa : clique nos botões verdes com uma cruz preta para aumentar o zoom; no botão verde com uma pitada de zoom; ou nas setas verdes para mapas adjacentes.


METAR-TAF: